sensor_id;sensor_type;location;lat;lon;timestamp;temperature;humidity
4604;DHT22;2314;48.272;11.562;2022-08-19T00:02:03;17.40;99.90
4604;DHT22;2314;48.272;11.562;2022-08-19T00:04:32;17.40;99.90
4604;DHT22;2314;48.272;11.562;2022-08-19T00:07:04;17.50;99.90
4604;DHT22;2314;48.272;11.562;2022-08-19T00:09:32;17.60;99.90
4604;DHT22;2314;48.272;11.562;2022-08-19T00:11:59;17.60;99.90
4604;DHT22;2314;48.272;11.562;2022-08-19T00:14:28;17.60;99.90
4604;DHT22;2314;48.272;11.562;2022-08-19T00:16:57;17.60;99.90
4604;DHT22;2314;48.272;11.562;2022-08-19T00:19:24;17.70;99.90
4604;DHT22;2314;48.272;11.562;2022-08-19T00:21:52;17.70;99.90
4604;DHT22;2314;48.272;11.562;2022-08-19T00:24:21;17.70;99.90
4604;DHT22;2314;48.272;11.562;2022-08-19T00:26:49;17.70;99.90
4604;DHT22;2314;48.272;11.562;2022-08-19T00:29:18;17.70;99.90
4604;DHT22;2314;48.272;11.562;2022-08-19T00:31:47;17.80;99.90
4604;DHT22;2314;48.272;11.562;2022-08-19T00:34:15;17.80;99.90
4604;DHT22;2314;48.272;11.562;2022-08-19T00:36:43;17.70;99.90
4604;DHT22;2314;48.272;11.562;2022-08-19T00:39:10;17.70;99.90
4604;DHT22;2314;48.272;11.562;2022-08-19T00:41:39;17.80;99.90
4604;DHT22;2314;48.272;11.562;2022-08-19T00:44:12;17.80;99.90
4604;DHT22;2314;48.272;11.562;2022-08-19T00:46:43;17.80;99.90
4604;DHT22;2314;48.272;11.562;2022-08-19T00:49:16;17.80;99.90
4604;DHT22;2314;48.272;11.562;2022-08-19T00:51:51;17.80;99.90
4604;DHT22;2314;48.272;11.562;2022-08-19T00:54:21;17.70;99.90
4604;DHT22;2314;48.272;11.562;2022-08-19T00:56:48;17.80;99.90
4604;DHT22;2314;48.272;11.562;2022-08-19T00:59:19;17.70;99.90
4604;DHT22;2314;48.272;11.562;2022-08-19T01:01:48;17.70;99.90
4604;DHT22;2314;48.272;11.562;2022-08-19T01:04:16;17.70;99.90
4604;DHT22;2314;48.272;11.562;2022-08-19T01:06:43;17.70;99.90
4604;DHT22;2314;48.272;11.562;2022-08-19T01:09:10;17.70;99.90
4604;DHT22;2314;48.272;11.562;2022-08-19T01:11:41;17.70;99.90
4604;DHT22;2314;48.272;11.562;2022-08-19T01:14:10;17.70;99.90
4604;DHT22;2314;48.272;11.562;2022-08-19T01:16:39;17.70;99.90
4604;DHT22;2314;48.272;11.562;2022-08-19T01:19:12;17.70;99.90
4604;DHT22;2314;48.272;11.562;2022-08-19T01:21:49;17.70;99.90
4604;DHT22;2314;48.272;11.562;2022-08-19T01:24:20;17.70;99.90
4604;DHT22;2314;48.272;11.562;2022-08-19T01:26:48;17.70;99.90
4604;DHT22;2314;48.272;11.562;2022-08-19T01:29:15;17.70;99.90
4604;DHT22;2314;48.272;11.562;2022-08-19T01:31:42;17.70;99.90
4604;DHT22;2314;48.272;11.562;2022-08-19T01:34:09;17.70;99.90
4604;DHT22;2314;48.272;11.562;2022-08-19T01:36:41;17.70;99.90
4604;DHT22;2314;48.272;11.562;2022-08-19T01:39:14;17.70;99.90
4604;DHT22;2314;48.272;11.562;2022-08-19T01:41:44;17.70;99.90
4604;DHT22;2314;48.272;11.562;2022-08-19T01:44:11;17.70;99.90
4604;DHT22;2314;48.272;11.562;2022-08-19T01:46:39;17.70;99.90
4604;DHT22;2314;48.272;11.562;2022-08-19T01:49:07;17.70;99.90
4604;DHT22;2314;48.272;11.562;2022-08-19T01:51:35;17.70;99.90
4604;DHT22;2314;48.272;11.562;2022-08-19T01:54:03;17.70;99.90
4604;DHT22;2314;48.272;11.562;2022-08-19T01:56:30;17.80;99.90
4604;DHT22;2314;48.272;11.562;2022-08-19T01:59:02;17.80;99.90
4604;DHT22;2314;48.272;11.562;2022-08-19T02:01:30;17.80;99.90
4604;DHT22;2314;48.272;11.562;2022-08-19T02:03:58;17.80;99.90
4604;DHT22;2314;48.272;11.562;2022-08-19T02:06:26;17.70;99.90
4604;DHT22;2314;48.272;11.562;2022-08-19T02:08:53;17.70;99.90
4604;DHT22;2314;48.272;11.562;2022-08-19T02:11:21;17.70;99.90
4604;DHT22;2314;48.272;11.562;2022-08-19T02:13:52;17.70;99.90
4604;DHT22;2314;48.272;11.562;2022-08-19T02:16:21;17.70;99.90
4604;DHT22;2314;48.272;11.562;2022-08-19T02:18:49;17.70;99.90
4604;DHT22;2314;48.272;11.562;2022-08-19T02:21:17;17.70;99.90
4604;DHT22;2314;48.272;11.562;2022-08-19T02:23:45;17.70;99.90
4604;DHT22;2314;48.272;11.562;2022-08-19T02:26:12;17.80;99.90
4604;DHT22;2314;48.272;11.562;2022-08-19T02:28:40;17.80;99.90
4604;DHT22;2314;48.272;11.562;2022-08-19T02:31:10;17.80;99.90
4604;DHT22;2314;48.272;11.562;2022-08-19T02:33:39;17.90;99.90
4604;DHT22;2314;48.272;11.562;2022-08-19T02:36:07;17.90;99.90
4604;DHT22;2314;48.272;11.562;2022-08-19T02:38:36;17.90;99.90
4604;DHT22;2314;48.272;11.562;2022-08-19T02:41:04;17.90;99.90
4604;DHT22;2314;48.272;11.562;2022-08-19T02:43:35;17.90;99.90
4604;DHT22;2314;48.272;11.562;2022-08-19T02:46:12;17.90;99.90
4604;DHT22;2314;48.272;11.562;2022-08-19T02:48:41;17.90;99.90
4604;DHT22;2314;48.272;11.562;2022-08-19T02:51:09;17.90;99.90
4604;DHT22;2314;48.272;11.562;2022-08-19T02:53:42;18.00;99.90
4604;DHT22;2314;48.272;11.562;2022-08-19T02:56:10;17.90;99.90
4604;DHT22;2314;48.272;11.562;2022-08-19T02:58:37;17.90;99.90
4604;DHT22;2314;48.272;11.562;2022-08-19T03:01:04;17.90;99.90
4604;DHT22;2314;48.272;11.562;2022-08-19T03:03:32;17.90;99.90
4604;DHT22;2314;48.272;11.562;2022-08-19T03:06:06;17.80;99.90
4604;DHT22;2314;48.272;11.562;2022-08-19T03:08:36;17.90;99.90
4604;DHT22;2314;48.272;11.562;2022-08-19T03:11:03;17.80;99.90
4604;DHT22;2314;48.272;11.562;2022-08-19T03:13:31;17.80;99.90
4604;DHT22;2314;48.272;11.562;2022-08-19T03:15:58;17.80;99.90
4604;DHT22;2314;48.272;11.562;2022-08-19T03:18:25;17.80;99.90
4604;DHT22;2314;48.272;11.562;2022-08-19T03:20:53;17.90;99.90
4604;DHT22;2314;48.272;11.562;2022-08-19T03:23:22;17.80;99.90
4604;DHT22;2314;48.272;11.562;2022-08-19T03:25:52;17.90;99.90
4604;DHT22;2314;48.272;11.562;2022-08-19T03:28:20;17.90;99.90
4604;DHT22;2314;48.272;11.562;2022-08-19T03:30:57;17.90;99.90
4604;DHT22;2314;48.272;11.562;2022-08-19T03:33:26;17.90;99.90
4604;DHT22;2314;48.272;11.562;2022-08-19T03:36:06;17.90;99.90
4604;DHT22;2314;48.272;11.562;2022-08-19T03:38:38;17.90;99.90
4604;DHT22;2314;48.272;11.562;2022-08-19T03:41:09;18.00;99.90
4604;DHT22;2314;48.272;11.562;2022-08-19T03:43:39;17.90;99.90
4604;DHT22;2314;48.272;11.562;2022-08-19T03:46:09;18.00;99.90
4604;DHT22;2314;48.272;11.562;2022-08-19T03:48:38;18.00;99.90
4604;DHT22;2314;48.272;11.562;2022-08-19T03:51:06;18.00;99.90
4604;DHT22;2314;48.272;11.562;2022-08-19T03:53:36;17.90;99.90
4604;DHT22;2314;48.272;11.562;2022-08-19T03:56:03;17.90;99.90
4604;DHT22;2314;48.272;11.562;2022-08-19T03:58:31;17.90;99.90
4604;DHT22;2314;48.272;11.562;2022-08-19T04:00:58;17.90;99.90
4604;DHT22;2314;48.272;11.562;2022-08-19T04:03:25;17.90;99.90
4604;DHT22;2314;48.272;11.562;2022-08-19T04:05:53;17.90;99.90
4604;DHT22;2314;48.272;11.562;2022-08-19T04:08:20;17.90;99.90
4604;DHT22;2314;48.272;11.562;2022-08-19T04:10:49;17.90;99.90
4604;DHT22;2314;48.272;11.562;2022-08-19T04:13:17;17.90;99.90
4604;DHT22;2314;48.272;11.562;2022-08-19T04:15:45;17.90;99.90
4604;DHT22;2314;48.272;11.562;2022-08-19T04:18:13;17.90;99.90
4604;DHT22;2314;48.272;11.562;2022-08-19T04:20:42;17.90;99.90
4604;DHT22;2314;48.272;11.562;2022-08-19T04:23:10;17.90;99.90
4604;DHT22;2314;48.272;11.562;2022-08-19T04:25:39;17.90;99.90
4604;DHT22;2314;48.272;11.562;2022-08-19T04:28:09;17.90;99.90
4604;DHT22;2314;48.272;11.562;2022-08-19T04:30:39;17.80;99.90
4604;DHT22;2314;48.272;11.562;2022-08-19T04:33:08;17.80;99.90
4604;DHT22;2314;48.272;11.562;2022-08-19T04:35:38;17.90;99.90
4604;DHT22;2314;48.272;11.562;2022-08-19T04:38:07;17.90;99.90
4604;DHT22;2314;48.272;11.562;2022-08-19T04:40:39;17.90;99.90
4604;DHT22;2314;48.272;11.562;2022-08-19T04:43:26;17.90;99.90
4604;DHT22;2314;48.272;11.562;2022-08-19T04:45:53;17.90;99.90
4604;DHT22;2314;48.272;11.562;2022-08-19T04:48:20;17.90;99.90
4604;DHT22;2314;48.272;11.562;2022-08-19T04:50:52;18.00;99.90
4604;DHT22;2314;48.272;11.562;2022-08-19T04:53:23;18.00;99.90
4604;DHT22;2314;48.272;11.562;2022-08-19T04:55:54;18.00;99.90
4604;DHT22;2314;48.272;11.562;2022-08-19T04:58:21;18.10;99.90
4604;DHT22;2314;48.272;11.562;2022-08-19T05:00:50;18.10;99.90
4604;DHT22;2314;48.272;11.562;2022-08-19T05:03:17;18.10;99.90
4604;DHT22;2314;48.272;11.562;2022-08-19T05:05:46;18.10;99.90
4604;DHT22;2314;48.272;11.562;2022-08-19T05:08:16;18.10;99.90
4604;DHT22;2314;48.272;11.562;2022-08-19T05:10:47;18.20;99.90
4604;DHT22;2314;48.272;11.562;2022-08-19T05:13:16;18.20;99.90
4604;DHT22;2314;48.272;11.562;2022-08-19T05:15:55;18.20;99.90
4604;DHT22;2314;48.272;11.562;2022-08-19T05:18:24;18.20;99.90
4604;DHT22;2314;48.272;11.562;2022-08-19T05:21:10;18.20;99.90
4604;DHT22;2314;48.272;11.562;2022-08-19T05:23:56;18.20;99.90
4604;DHT22;2314;48.272;11.562;2022-08-19T05:26:23;18.20;99.90
4604;DHT22;2314;48.272;11.562;2022-08-19T05:28:51;18.20;99.90
4604;DHT22;2314;48.272;11.562;2022-08-19T05:31:20;18.20;99.90
4604;DHT22;2314;48.272;11.562;2022-08-19T05:33:48;18.20;99.90
4604;DHT22;2314;48.272;11.562;2022-08-19T05:36:15;18.20;99.90
4604;DHT22;2314;48.272;11.562;2022-08-19T05:38:43;18.20;99.90
4604;DHT22;2314;48.272;11.562;2022-08-19T05:41:12;18.20;99.90
4604;DHT22;2314;48.272;11.562;2022-08-19T05:43:40;18.10;99.90
4604;DHT22;2314;48.272;11.562;2022-08-19T05:46:07;18.10;99.90
4604;DHT22;2314;48.272;11.562;2022-08-19T05:48:36;18.20;99.90
4604;DHT22;2314;48.272;11.562;2022-08-19T05:51:05;18.20;99.90
4604;DHT22;2314;48.272;11.562;2022-08-19T05:53:34;18.20;99.90
4604;DHT22;2314;48.272;11.562;2022-08-19T05:56:04;18.20;99.90
4604;DHT22;2314;48.272;11.562;2022-08-19T05:58:31;18.20;99.90
4604;DHT22;2314;48.272;11.562;2022-08-19T06:00:58;18.20;99.90
4604;DHT22;2314;48.272;11.562;2022-08-19T06:03:30;18.20;99.90
4604;DHT22;2314;48.272;11.562;2022-08-19T06:05:59;18.20;99.90
4604;DHT22;2314;48.272;11.562;2022-08-19T06:08:28;18.30;99.90
4604;DHT22;2314;48.272;11.562;2022-08-19T06:10:55;18.30;99.90
4604;DHT22;2314;48.272;11.562;2022-08-19T06:13:22;18.30;99.90
4604;DHT22;2314;48.272;11.562;2022-08-19T06:15:51;18.40;99.90
4604;DHT22;2314;48.272;11.562;2022-08-19T06:18:18;18.40;99.90
4604;DHT22;2314;48.272;11.562;2022-08-19T06:20:45;18.40;99.90
4604;DHT22;2314;48.272;11.562;2022-08-19T06:23:15;18.30;99.90
4604;DHT22;2314;48.272;11.562;2022-08-19T06:25:42;18.40;99.90
4604;DHT22;2314;48.272;11.562;2022-08-19T06:28:09;18.40;99.90
4604;DHT22;2314;48.272;11.562;2022-08-19T06:30:36;18.40;99.90
4604;DHT22;2314;48.272;11.562;2022-08-19T06:33:03;18.40;99.90
4604;DHT22;2314;48.272;11.562;2022-08-19T06:35:30;18.40;99.90
4604;DHT22;2314;48.272;11.562;2022-08-19T06:37:57;18.40;99.90
4604;DHT22;2314;48.272;11.562;2022-08-19T06:40:26;18.40;99.90
4604;DHT22;2314;48.272;11.562;2022-08-19T06:42:53;18.30;99.90
4604;DHT22;2314;48.272;11.562;2022-08-19T06:45:21;18.30;99.90
4604;DHT22;2314;48.272;11.562;2022-08-19T06:47:48;18.30;99.90
4604;DHT22;2314;48.272;11.562;2022-08-19T06:50:17;18.30;99.90
4604;DHT22;2314;48.272;11.562;2022-08-19T06:52:45;18.30;99.90
4604;DHT22;2314;48.272;11.562;2022-08-19T06:55:12;18.30;99.90
4604;DHT22;2314;48.272;11.562;2022-08-19T06:57:40;18.30;99.90
4604;DHT22;2314;48.272;11.562;2022-08-19T07:00:09;18.30;99.90
4604;DHT22;2314;48.272;11.562;2022-08-19T07:02:36;18.30;99.90
4604;DHT22;2314;48.272;11.562;2022-08-19T07:05:04;18.30;99.90
4604;DHT22;2314;48.272;11.562;2022-08-19T07:07:32;18.30;99.90
4604;DHT22;2314;48.272;11.562;2022-08-19T07:10:01;18.30;99.90
4604;DHT22;2314;48.272;11.562;2022-08-19T07:12:29;18.30;99.90
4604;DHT22;2314;48.272;11.562;2022-08-19T07:15:00;18.30;99.90
4604;DHT22;2314;48.272;11.562;2022-08-19T07:17:27;18.20;99.90
4604;DHT22;2314;48.272;11.562;2022-08-19T07:19:54;18.20;99.90
4604;DHT22;2314;48.272;11.562;2022-08-19T07:22:21;18.30;99.90
4604;DHT22;2314;48.272;11.562;2022-08-19T07:24:49;18.30;99.90
4604;DHT22;2314;48.272;11.562;2022-08-19T07:27:16;18.30;99.90
4604;DHT22;2314;48.272;11.562;2022-08-19T07:29:44;18.30;99.90
4604;DHT22;2314;48.272;11.562;2022-08-19T07:32:12;18.20;99.90
4604;DHT22;2314;48.272;11.562;2022-08-19T07:34:39;18.20;99.90
4604;DHT22;2314;48.272;11.562;2022-08-19T07:37:07;18.20;99.90
4604;DHT22;2314;48.272;11.562;2022-08-19T07:39:35;18.20;99.90
4604;DHT22;2314;48.272;11.562;2022-08-19T07:42:07;18.20;99.90
4604;DHT22;2314;48.272;11.562;2022-08-19T07:44:37;18.20;99.90
4604;DHT22;2314;48.272;11.562;2022-08-19T07:47:04;18.20;99.90
4604;DHT22;2314;48.272;11.562;2022-08-19T07:49:33;18.30;99.90
4604;DHT22;2314;48.272;11.562;2022-08-19T07:52:05;18.50;99.90
4604;DHT22;2314;48.272;11.562;2022-08-19T07:54:35;18.60;99.90
4604;DHT22;2314;48.272;11.562;2022-08-19T07:57:04;18.50;99.90
4604;DHT22;2314;48.272;11.562;2022-08-19T07:59:32;18.50;99.90
4604;DHT22;2314;48.272;11.562;2022-08-19T08:01:59;18.50;99.90
4604;DHT22;2314;48.272;11.562;2022-08-19T08:04:28;18.40;99.90
4604;DHT22;2314;48.272;11.562;2022-08-19T08:07:15;18.40;99.90
4604;DHT22;2314;48.272;11.562;2022-08-19T08:10:01;18.30;99.90
4604;DHT22;2314;48.272;11.562;2022-08-19T08:12:31;18.20;99.90
4604;DHT22;2314;48.272;11.562;2022-08-19T08:15:12;18.10;99.90
4604;DHT22;2314;48.272;11.562;2022-08-19T08:17:44;18.20;99.90
4604;DHT22;2314;48.272;11.562;2022-08-19T08:20:21;18.20;99.90
4604;DHT22;2314;48.272;11.562;2022-08-19T08:22:50;18.20;99.90
4604;DHT22;2314;48.272;11.562;2022-08-19T08:25:36;18.20;99.90
4604;DHT22;2314;48.272;11.562;2022-08-19T08:28:04;18.20;99.90
4604;DHT22;2314;48.272;11.562;2022-08-19T08:30:34;18.20;99.90
4604;DHT22;2314;48.272;11.562;2022-08-19T08:33:03;18.30;99.90
4604;DHT22;2314;48.272;11.562;2022-08-19T08:35:30;18.30;99.90
4604;DHT22;2314;48.272;11.562;2022-08-19T08:38:00;18.40;99.90
4604;DHT22;2314;48.272;11.562;2022-08-19T08:40:33;18.40;99.90
4604;DHT22;2314;48.272;11.562;2022-08-19T08:43:08;18.30;99.90
4604;DHT22;2314;48.272;11.562;2022-08-19T08:45:43;18.30;99.90
4604;DHT22;2314;48.272;11.562;2022-08-19T08:48:18;18.30;99.90
4604;DHT22;2314;48.272;11.562;2022-08-19T08:50:48;18.40;99.90
4604;DHT22;2314;48.272;11.562;2022-08-19T08:53:19;18.40;99.90
4604;DHT22;2314;48.272;11.562;2022-08-19T08:55:48;18.40;99.90
4604;DHT22;2314;48.272;11.562;2022-08-19T08:58:17;18.40;99.90
4604;DHT22;2314;48.272;11.562;2022-08-19T09:00:52;18.50;99.90
4604;DHT22;2314;48.272;11.562;2022-08-19T09:03:20;18.60;99.90
4604;DHT22;2314;48.272;11.562;2022-08-19T09:05:57;18.70;99.90
4604;DHT22;2314;48.272;11.562;2022-08-19T09:08:36;18.70;99.90
4604;DHT22;2314;48.272;11.562;2022-08-19T09:11:14;18.80;99.90
4604;DHT22;2314;48.272;11.562;2022-08-19T09:13:52;18.90;99.90
4604;DHT22;2314;48.272;11.562;2022-08-19T09:16:30;18.90;99.90
4604;DHT22;2314;48.272;11.562;2022-08-19T09:19:02;18.90;99.90
4604;DHT22;2314;48.272;11.562;2022-08-19T09:21:31;18.90;99.90
4604;DHT22;2314;48.272;11.562;2022-08-19T09:23:59;19.00;99.90
4604;DHT22;2314;48.272;11.562;2022-08-19T09:26:27;19.10;99.90
4604;DHT22;2314;48.272;11.562;2022-08-19T09:28:54;19.10;99.90
4604;DHT22;2314;48.272;11.562;2022-08-19T09:31:26;19.10;99.90
4604;DHT22;2314;48.272;11.562;2022-08-19T09:33:55;19.00;99.90
4604;DHT22;2314;48.272;11.562;2022-08-19T09:36:23;18.90;99.90
4604;DHT22;2314;48.272;11.562;2022-08-19T09:38:52;18.80;99.90
4604;DHT22;2314;48.272;11.562;2022-08-19T09:41:23;18.70;99.90
4604;DHT22;2314;48.272;11.562;2022-08-19T09:43:53;18.70;99.90
4604;DHT22;2314;48.272;11.562;2022-08-19T09:46:22;18.60;99.90
4604;DHT22;2314;48.272;11.562;2022-08-19T09:48:52;18.60;99.90
4604;DHT22;2314;48.272;11.562;2022-08-19T09:51:21;18.60;99.90
4604;DHT22;2314;48.272;11.562;2022-08-19T09:53:50;18.60;99.90
4604;DHT22;2314;48.272;11.562;2022-08-19T09:56:21;18.50;99.90
4604;DHT22;2314;48.272;11.562;2022-08-19T09:58:48;18.50;99.90
4604;DHT22;2314;48.272;11.562;2022-08-19T10:01:17;18.50;99.90
4604;DHT22;2314;48.272;11.562;2022-08-19T10:03:48;18.60;99.90
4604;DHT22;2314;48.272;11.562;2022-08-19T10:06:17;18.70;99.90
4604;DHT22;2314;48.272;11.562;2022-08-19T10:08:45;18.70;99.90
4604;DHT22;2314;48.272;11.562;2022-08-19T10:11:13;18.90;99.90
4604;DHT22;2314;48.272;11.562;2022-08-19T10:13:44;19.00;99.90
4604;DHT22;2314;48.272;11.562;2022-08-19T10:16:14;19.10;99.90
4604;DHT22;2314;48.272;11.562;2022-08-19T10:18:45;19.20;99.90
4604;DHT22;2314;48.272;11.562;2022-08-19T10:21:15;19.30;99.90
4604;DHT22;2314;48.272;11.562;2022-08-19T10:23:45;19.30;99.90
4604;DHT22;2314;48.272;11.562;2022-08-19T10:26:17;19.30;99.90
4604;DHT22;2314;48.272;11.562;2022-08-19T10:28:47;19.30;99.90
4604;DHT22;2314;48.272;11.562;2022-08-19T10:31:16;19.30;99.90
4604;DHT22;2314;48.272;11.562;2022-08-19T10:33:45;19.30;99.90
4604;DHT22;2314;48.272;11.562;2022-08-19T10:36:15;19.20;99.90
4604;DHT22;2314;48.272;11.562;2022-08-19T10:38:45;19.20;99.90
4604;DHT22;2314;48.272;11.562;2022-08-19T10:41:15;19.40;99.90
4604;DHT22;2314;48.272;11.562;2022-08-19T10:43:43;19.70;99.90
4604;DHT22;2314;48.272;11.562;2022-08-19T10:46:13;19.80;99.90
4604;DHT22;2314;48.272;11.562;2022-08-19T10:48:42;19.90;99.90
4604;DHT22;2314;48.272;11.562;2022-08-19T10:51:10;20.00;99.90
4604;DHT22;2314;48.272;11.562;2022-08-19T10:53:56;19.90;99.90
4604;DHT22;2314;48.272;11.562;2022-08-19T10:56:24;19.90;99.90
4604;DHT22;2314;48.272;11.562;2022-08-19T10:59:09;20.20;99.90
4604;DHT22;2314;48.272;11.562;2022-08-19T11:01:40;20.30;99.90
4604;DHT22;2314;48.272;11.562;2022-08-19T11:04:08;20.80;99.90
4604;DHT22;2314;48.272;11.562;2022-08-19T11:06:36;21.30;99.90
4604;DHT22;2314;48.272;11.562;2022-08-19T11:09:04;21.60;99.90
4604;DHT22;2314;48.272;11.562;2022-08-19T11:11:32;21.70;99.90
4604;DHT22;2314;48.272;11.562;2022-08-19T11:14:05;21.80;99.90
4604;DHT22;2314;48.272;11.562;2022-08-19T11:16:32;21.50;99.90
4604;DHT22;2314;48.272;11.562;2022-08-19T11:19:01;21.60;99.90
4604;DHT22;2314;48.272;11.562;2022-08-19T11:21:30;21.50;99.90
4604;DHT22;2314;48.272;11.562;2022-08-19T11:24:01;21.30;99.90
4604;DHT22;2314;48.272;11.562;2022-08-19T11:26:30;21.10;99.90
4604;DHT22;2314;48.272;11.562;2022-08-19T11:28:59;21.00;99.90
4604;DHT22;2314;48.272;11.562;2022-08-19T11:31:29;21.10;99.90
4604;DHT22;2314;48.272;11.562;2022-08-19T11:33:58;21.50;99.90
4604;DHT22;2314;48.272;11.562;2022-08-19T11:36:28;21.90;99.90
4604;DHT22;2314;48.272;11.562;2022-08-19T11:38:56;21.80;99.90
4604;DHT22;2314;48.272;11.562;2022-08-19T11:41:24;21.40;99.90
4604;DHT22;2314;48.272;11.562;2022-08-19T11:43:53;21.00;99.90
4604;DHT22;2314;48.272;11.562;2022-08-19T11:46:22;21.10;99.90
4604;DHT22;2314;48.272;11.562;2022-08-19T11:48:51;21.20;99.90
4604;DHT22;2314;48.272;11.562;2022-08-19T11:51:20;21.10;99.90
4604;DHT22;2314;48.272;11.562;2022-08-19T11:53:52;20.90;99.90
4604;DHT22;2314;48.272;11.562;2022-08-19T11:56:21;20.80;99.90
4604;DHT22;2314;48.272;11.562;2022-08-19T11:58:48;20.70;99.90
4604;DHT22;2314;48.272;11.562;2022-08-19T12:01:18;20.50;99.90
4604;DHT22;2314;48.272;11.562;2022-08-19T12:03:48;20.50;99.90
4604;DHT22;2314;48.272;11.562;2022-08-19T12:06:18;20.50;99.90
4604;DHT22;2314;48.272;11.562;2022-08-19T12:08:51;20.50;99.90
4604;DHT22;2314;48.272;11.562;2022-08-19T12:11:19;20.40;99.90
4604;DHT22;2314;48.272;11.562;2022-08-19T12:13:46;20.30;99.90
4604;DHT22;2314;48.272;11.562;2022-08-19T12:16:16;20.30;99.90
4604;DHT22;2314;48.272;11.562;2022-08-19T12:18:45;20.40;99.90
4604;DHT22;2314;48.272;11.562;2022-08-19T12:21:13;20.60;99.90
4604;DHT22;2314;48.272;11.562;2022-08-19T12:23:42;20.80;99.90
4604;DHT22;2314;48.272;11.562;2022-08-19T12:26:11;21.00;99.90
4604;DHT22;2314;48.272;11.562;2022-08-19T12:28:39;21.00;99.90
4604;DHT22;2314;48.272;11.562;2022-08-19T12:31:07;21.10;99.90
4604;DHT22;2314;48.272;11.562;2022-08-19T12:33:38;20.90;99.90
4604;DHT22;2314;48.272;11.562;2022-08-19T12:36:08;20.80;99.90
4604;DHT22;2314;48.272;11.562;2022-08-19T12:38:37;20.70;99.90
4604;DHT22;2314;48.272;11.562;2022-08-19T12:41:05;20.60;99.90
4604;DHT22;2314;48.272;11.562;2022-08-19T12:43:34;20.50;99.90
4604;DHT22;2314;48.272;11.562;2022-08-19T12:46:02;20.60;99.90
4604;DHT22;2314;48.272;11.562;2022-08-19T12:48:30;20.60;99.90
4604;DHT22;2314;48.272;11.562;2022-08-19T12:50:57;20.60;99.90
4604;DHT22;2314;48.272;11.562;2022-08-19T12:53:24;20.60;99.90
4604;DHT22;2314;48.272;11.562;2022-08-19T12:55:54;20.50;99.90
4604;DHT22;2314;48.272;11.562;2022-08-19T12:58:22;20.30;99.90
4604;DHT22;2314;48.272;11.562;2022-08-19T13:00:51;20.10;99.90
4604;DHT22;2314;48.272;11.562;2022-08-19T13:03:18;20.10;99.90
4604;DHT22;2314;48.272;11.562;2022-08-19T13:05:45;20.00;99.90
4604;DHT22;2314;48.272;11.562;2022-08-19T13:08:12;19.90;99.90
4604;DHT22;2314;48.272;11.562;2022-08-19T13:10:40;19.90;99.90
4604;DHT22;2314;48.272;11.562;2022-08-19T13:13:09;19.80;99.90
4604;DHT22;2314;48.272;11.562;2022-08-19T13:15:37;19.70;99.90
4604;DHT22;2314;48.272;11.562;2022-08-19T13:18:09;19.70;99.90
4604;DHT22;2314;48.272;11.562;2022-08-19T13:20:38;19.70;99.90
4604;DHT22;2314;48.272;11.562;2022-08-19T13:23:07;19.50;99.90
4604;DHT22;2314;48.272;11.562;2022-08-19T13:25:34;19.50;99.90
4604;DHT22;2314;48.272;11.562;2022-08-19T13:28:02;19.50;99.90
4604;DHT22;2314;48.272;11.562;2022-08-19T13:30:29;19.50;99.90
4604;DHT22;2314;48.272;11.562;2022-08-19T13:33:15;19.50;99.90
4604;DHT22;2314;48.272;11.562;2022-08-19T13:35:45;19.50;99.90
4604;DHT22;2314;48.272;11.562;2022-08-19T13:38:15;19.40;99.90
4604;DHT22;2314;48.272;11.562;2022-08-19T13:40:44;19.40;99.90
4604;DHT22;2314;48.272;11.562;2022-08-19T13:43:12;19.40;99.90
4604;DHT22;2314;48.272;11.562;2022-08-19T13:45:39;19.50;99.90
4604;DHT22;2314;48.272;11.562;2022-08-19T13:48:07;19.70;99.90
4604;DHT22;2314;48.272;11.562;2022-08-19T13:50:39;19.80;99.90
4604;DHT22;2314;48.272;11.562;2022-08-19T13:53:09;19.60;99.90
4604;DHT22;2314;48.272;11.562;2022-08-19T13:55:38;19.40;99.90
4604;DHT22;2314;48.272;11.562;2022-08-19T13:58:05;19.30;99.90
4604;DHT22;2314;48.272;11.562;2022-08-19T14:00:35;19.20;99.90
4604;DHT22;2314;48.272;11.562;2022-08-19T14:03:03;19.20;99.90
4604;DHT22;2314;48.272;11.562;2022-08-19T14:05:31;19.30;99.90
4604;DHT22;2314;48.272;11.562;2022-08-19T14:08:00;19.30;99.90
4604;DHT22;2314;48.272;11.562;2022-08-19T14:10:28;19.50;99.90
4604;DHT22;2314;48.272;11.562;2022-08-19T14:13:00;19.60;99.90
4604;DHT22;2314;48.272;11.562;2022-08-19T14:15:29;19.80;99.90
4604;DHT22;2314;48.272;11.562;2022-08-19T14:17:56;19.90;99.90
4604;DHT22;2314;48.272;11.562;2022-08-19T14:20:23;20.00;99.90
4604;DHT22;2314;48.272;11.562;2022-08-19T14:22:50;20.40;99.90
4604;DHT22;2314;48.272;11.562;2022-08-19T14:25:21;20.70;99.90
4604;DHT22;2314;48.272;11.562;2022-08-19T14:27:50;20.70;99.90
4604;DHT22;2314;48.272;11.562;2022-08-19T14:30:21;20.50;99.90
4604;DHT22;2314;48.272;11.562;2022-08-19T14:32:50;20.30;99.90
4604;DHT22;2314;48.272;11.562;2022-08-19T14:35:18;20.30;99.90
4604;DHT22;2314;48.272;11.562;2022-08-19T14:37:45;20.30;99.90
4604;DHT22;2314;48.272;11.562;2022-08-19T14:40:14;20.50;99.90
4604;DHT22;2314;48.272;11.562;2022-08-19T14:42:43;20.80;99.90
4604;DHT22;2314;48.272;11.562;2022-08-19T14:45:11;20.80;99.90
4604;DHT22;2314;48.272;11.562;2022-08-19T14:47:39;20.60;99.90
4604;DHT22;2314;48.272;11.562;2022-08-19T14:50:07;20.40;99.90
4604;DHT22;2314;48.272;11.562;2022-08-19T14:52:36;20.20;99.90
4604;DHT22;2314;48.272;11.562;2022-08-19T14:55:05;20.00;99.90
4604;DHT22;2314;48.272;11.562;2022-08-19T14:57:32;20.00;99.90
4604;DHT22;2314;48.272;11.562;2022-08-19T15:00:01;19.80;99.90
4604;DHT22;2314;48.272;11.562;2022-08-19T15:02:29;19.60;99.90
4604;DHT22;2314;48.272;11.562;2022-08-19T15:04:56;19.50;99.90
4604;DHT22;2314;48.272;11.562;2022-08-19T15:07:23;19.50;99.90
4604;DHT22;2314;48.272;11.562;2022-08-19T15:09:50;19.60;99.90
4604;DHT22;2314;48.272;11.562;2022-08-19T15:12:17;19.70;99.90
4604;DHT22;2314;48.272;11.562;2022-08-19T15:14:44;20.10;99.90
4604;DHT22;2314;48.272;11.562;2022-08-19T15:17:17;20.10;99.90
4604;DHT22;2314;48.272;11.562;2022-08-19T15:19:45;20.10;99.90
4604;DHT22;2314;48.272;11.562;2022-08-19T15:22:12;20.00;99.90
4604;DHT22;2314;48.272;11.562;2022-08-19T15:24:39;19.90;99.90
4604;DHT22;2314;48.272;11.562;2022-08-19T15:27:10;19.80;99.90
4604;DHT22;2314;48.272;11.562;2022-08-19T15:29:38;19.60;99.90
4604;DHT22;2314;48.272;11.562;2022-08-19T15:32:05;19.40;99.90
4604;DHT22;2314;48.272;11.562;2022-08-19T15:34:34;19.30;99.90
4604;DHT22;2314;48.272;11.562;2022-08-19T15:37:01;19.30;99.90
4604;DHT22;2314;48.272;11.562;2022-08-19T15:39:29;19.30;99.90
4604;DHT22;2314;48.272;11.562;2022-08-19T15:41:56;19.20;99.90
4604;DHT22;2314;48.272;11.562;2022-08-19T15:44:25;19.10;99.90
4604;DHT22;2314;48.272;11.562;2022-08-19T15:46:52;19.00;99.90
4604;DHT22;2314;48.272;11.562;2022-08-19T15:49:20;19.00;99.90
4604;DHT22;2314;48.272;11.562;2022-08-19T15:51:49;19.00;99.90
4604;DHT22;2314;48.272;11.562;2022-08-19T15:54:19;19.20;99.90
4604;DHT22;2314;48.272;11.562;2022-08-19T15:56:47;19.30;99.90
4604;DHT22;2314;48.272;11.562;2022-08-19T15:59:32;19.40;99.90